SILO ALERT LOG
| Silo ID | Alert Type | Alert Message | Silo Type | Points | Depth (mm) | Strength | Temperature (°C) | Humidity (%) | Height (mm) | Volume (㎥) | Weight (t) | Flag | Time |
|---|---|---|---|---|---|---|---|---|---|---|---|---|---|
| WJWJR01 | Humidity | 습도센서 측정값이 80% 초과 | 평 | 48 | 6785 | 1853 | 18.9 | 87.2 | 854 | 96.645 | 61.099 | 0 | 2026-06-01 08:25:53.000 |
| WJWJR05 | Humidity | 습도센서 측정값이 80% 초과 | 평 | 81 | 5781 | 2300 | 20.6 | 83.5 | 1948 | 220.414 | 139.345 | 0 | 2026-06-01 07:25:56.000 |
| WJWJR01 | Humidity | 습도센서 측정값이 80% 초과 | 평 | 49 | 6754 | 1900 | 18.7 | 87.8 | 885 | 100.138 | 63.307 | 0 | 2026-06-01 07:25:53.000 |
| WJWJR05 | Humidity | 습도센서 측정값이 80% 초과 | 평 | 80 | 5756 | 2308 | 20.8 | 83.3 | 1973 | 223.151 | 141.076 | 0 | 2026-06-01 06:25:58.000 |
| WJWJR01 | Humidity | 습도센서 측정값이 80% 초과 | 평 | 49 | 6746 | 1874 | 18.8 | 87.9 | 893 | 101.023 | 63.867 | 0 | 2026-06-01 06:25:50.000 |
| WJWJR05 | Humidity | 습도센서 측정값이 80% 초과 | 평 | 78 | 5778 | 2271 | 21.1 | 83.1 | 1951 | 220.689 | 139.52 | 0 | 2026-06-01 05:25:59.000 |
| WJWJR01 | Humidity | 습도센서 측정값이 80% 초과 | 평 | 50 | 6760 | 1866 | 19.1 | 87.6 | 879 | 99.459 | 62.878 | 0 | 2026-06-01 05:25:52.000 |
| WJWJR05 | Humidity | 습도센서 측정값이 80% 초과 | 평 | 81 | 5779 | 2270 | 21.5 | 82.8 | 1950 | 220.555 | 139.435 | 0 | 2026-06-01 04:25:56.000 |
| WJWJR01 | Humidity | 습도센서 측정값이 80% 초과 | 평 | 48 | 6825 | 1879 | 19.5 | 87.1 | 814 | 92.153 | 58.259 | 0 | 2026-06-01 04:25:53.000 |
| WJWJR05 | Humidity | 습도센서 측정값이 80% 초과 | 평 | 79 | 5774 | 2284 | 22 | 82.4 | 1955 | 221.172 | 139.825 | 0 | 2026-06-01 03:25:56.000 |
| WJWJR01 | Humidity | 습도센서 측정값이 80% 초과 | 평 | 49 | 6811 | 1827 | 20 | 86.6 | 828 | 93.724 | 59.252 | 0 | 2026-06-01 03:25:56.000 |
| WJWJR05 | Humidity | 습도센서 측정값이 80% 초과 | 평 | 78 | 5737 | 2305 | 22.5 | 82 | 1992 | 225.37 | 142.479 | 0 | 2026-06-01 02:25:56.000 |
| WJWJR01 | Humidity | 습도센서 측정값이 80% 초과 | 평 | 49 | 6848 | 1874 | 20.6 | 85.9 | 791 | 89.522 | 56.596 | 0 | 2026-06-01 02:25:50.000 |
| WJWJR05 | Humidity | 습도센서 측정값이 80% 초과 | 평 | 79 | 5768 | 2292 | 23.1 | 81.3 | 1961 | 221.852 | 140.255 | 0 | 2026-06-01 01:25:54.000 |
| WJWJR01 | Humidity | 습도센서 측정값이 80% 초과 | 평 | 49 | 6728 | 1834 | 21.2 | 85.1 | 911 | 103.039 | 65.141 | 0 | 2026-06-01 01:25:52.000 |
| WJWJR05 | Humidity | 습도센서 측정값이 80% 초과 | 평 | 78 | 5775 | 2289 | 23.8 | 80.4 | 1954 | 221.047 | 139.746 | 0 | 2026-06-01 00:25:57.000 |
| WJWJR01 | Humidity | 습도센서 측정값이 80% 초과 | 평 | 50 | 6751 | 1819 | 22 | 84.1 | 888 | 100.465 | 63.514 | 0 | 2026-06-01 00:25:51.000 |
| WJWJR01 | Humidity | 습도센서 측정값이 80% 초과 | 평 | 50 | 6764 | 1845 | 22.9 | 82.5 | 875 | 98.971 | 62.569 | 0 | 2026-05-31 23:25:53.000 |
| WJWJR01 | Humidity | 습도센서 측정값이 80% 초과 | 평 | 49 | 6807 | 1787 | 24 | 80.2 | 832 | 94.191 | 59.548 | 0 | 2026-05-31 22:25:54.000 |
| WJWJR05 | Humidity | 습도센서 측정값이 80% 초과 | 평 | 81 | 5742 | 2348 | 25 | 80.2 | 1987 | 224.796 | 142.116 | 0 | 2026-05-31 11:25:55.000 |
[첫 페이지] [54] [55] [56] [57] 58 [59] [60] [61] [62] [마지막 페이지]